sensor_id;sensor_type;location;lat;lon;timestamp;noise_LAeq;noise_LA_min;noise_LA_max;noise_LA01;noise_LA95
40465;Laerm;30489;48.982;8.394;2023-01-01T00:01:15;41.44;40.13;42.71;;
40465;Laerm;30489;48.982;8.394;2023-01-01T00:03:25;41.43;40.03;42.53;;
40465;Laerm;30489;48.982;8.394;2023-01-01T00:05:38;41.43;40.03;42.65;;
40465;Laerm;30489;48.982;8.394;2023-01-01T00:07:49;41.42;40.13;42.59;;
40465;Laerm;30489;48.982;8.394;2023-01-01T00:09:59;41.42;39.92;44.11;;
40465;Laerm;30489;48.982;8.394;2023-01-01T00:12:28;41.45;40.03;56.70;;
40465;Laerm;30489;48.982;8.394;2023-01-01T00:14:39;41.48;40.13;58.42;;
40465;Laerm;30489;48.982;8.394;2023-01-01T00:16:53;41.42;40.13;43.72;;
40465;Laerm;30489;48.982;8.394;2023-01-01T00:19:03;41.43;40.13;42.59;;
40465;Laerm;30489;48.982;8.394;2023-01-01T00:21:13;41.43;40.13;42.47;;
40465;Laerm;30489;48.982;8.394;2023-01-01T00:23:24;41.44;40.23;42.47;;
40465;Laerm;30489;48.982;8.394;2023-01-01T00:25:34;41.44;40.23;42.53;;
40465;Laerm;30489;48.982;8.394;2023-01-01T00:27:44;41.45;39.92;42.65;;
40465;Laerm;30489;48.982;8.394;2023-01-01T00:29:54;41.44;40.03;42.53;;
40465;Laerm;30489;48.982;8.394;2023-01-01T00:32:04;41.42;40.03;42.71;;
40465;Laerm;30489;48.982;8.394;2023-01-01T00:34:15;41.41;40.13;42.76;;
40465;Laerm;30489;48.982;8.394;2023-01-01T00:36:25;41.41;40.23;44.07;;
40465;Laerm;30489;48.982;8.394;2023-01-01T00:38:36;41.39;40.03;42.59;;
40465;Laerm;30489;48.982;8.394;2023-01-01T00:40:46;41.38;39.81;42.35;;
40465;Laerm;30489;48.982;8.394;2023-01-01T00:42:57;41.37;40.03;42.59;;
40465;Laerm;30489;48.982;8.394;2023-01-01T00:45:07;41.36;40.03;42.74;;
40465;Laerm;30489;48.982;8.394;2023-01-01T00:47:17;41.34;40.03;42.47;;
40465;Laerm;30489;48.982;8.394;2023-01-01T00:49:27;41.33;39.92;42.41;;
40465;Laerm;30489;48.982;8.394;2023-01-01T00:51:38;41.32;39.92;42.53;;
40465;Laerm;30489;48.982;8.394;2023-01-01T00:53:48;41.30;39.46;42.41;;
40465;Laerm;30489;48.982;8.394;2023-01-01T00:55:58;41.29;39.92;42.65;;
40465;Laerm;30489;48.982;8.394;2023-01-01T00:58:09;41.27;40.03;42.59;;
40465;Laerm;30489;48.982;8.394;2023-01-01T01:00:19;41.25;39.81;42.42;;
40465;Laerm;30489;48.982;8.394;2023-01-01T01:02:29;41.25;39.78;42.29;;
40465;Laerm;30489;48.982;8.394;2023-01-01T01:04:39;41.24;39.92;42.41;;
40465;Laerm;30489;48.982;8.394;2023-01-01T01:06:50;41.23;39.81;42.53;;
40465;Laerm;30489;48.982;8.394;2023-01-01T01:09:00;41.23;39.81;42.47;;
40465;Laerm;30489;48.982;8.394;2023-01-01T01:11:11;41.20;39.92;42.35;;
40465;Laerm;30489;48.982;8.394;2023-01-01T01:13:22;41.20;39.70;42.35;;
40465;Laerm;30489;48.982;8.394;2023-01-01T01:15:32;41.17;39.58;42.36;;
40465;Laerm;30489;48.982;8.394;2023-01-01T01:17:42;41.19;39.81;42.59;;
40465;Laerm;30489;48.982;8.394;2023-01-01T01:19:52;41.16;39.70;42.41;;
40465;Laerm;30489;48.982;8.394;2023-01-01T01:22:02;41.15;39.92;42.22;;
40465;Laerm;30489;48.982;8.394;2023-01-01T01:24:12;41.15;39.58;46.95;;
40465;Laerm;30489;48.982;8.394;2023-01-01T01:26:23;41.17;39.46;50.06;;
40465;Laerm;30489;48.982;8.394;2023-01-01T01:28:34;41.12;39.81;45.66;;
40465;Laerm;30489;48.982;8.394;2023-01-01T01:30:44;41.13;39.58;50.71;;
40465;Laerm;30489;48.982;8.394;2023-01-01T01:32:54;41.10;39.57;44.43;;
40465;Laerm;30489;48.982;8.394;2023-01-01T01:35:05;41.12;39.46;50.13;;
40465;Laerm;30489;48.982;8.394;2023-01-01T01:37:15;41.10;39.70;46.64;;
40465;Laerm;30489;48.982;8.394;2023-01-01T01:39:25;41.09;39.81;50.19;;
40465;Laerm;30489;48.982;8.394;2023-01-01T01:41:35;41.22;39.58;60.43;;
40465;Laerm;30489;48.982;8.394;2023-01-01T01:43:50;41.07;39.70;51.14;;
40465;Laerm;30489;48.982;8.394;2023-01-01T01:46:04;41.04;39.58;42.29;;
40465;Laerm;30489;48.982;8.394;2023-01-01T01:48:15;41.05;39.58;42.16;;
40465;Laerm;30489;48.982;8.394;2023-01-01T01:50:30;41.03;39.46;42.24;;
40465;Laerm;30489;48.982;8.394;2023-01-01T01:52:45;41.03;39.70;42.19;;
40465;Laerm;30489;48.982;8.394;2023-01-01T01:54:57;41.02;39.70;42.09;;
40465;Laerm;30489;48.982;8.394;2023-01-01T01:57:09;41.01;39.70;42.41;;
40465;Laerm;30489;48.982;8.394;2023-01-01T01:59:22;41.01;39.21;42.16;;
40465;Laerm;30489;48.982;8.394;2023-01-01T02:01:33;41.04;39.46;42.16;;
40465;Laerm;30489;48.982;8.394;2023-01-01T02:03:48;41.02;39.58;42.22;;
40465;Laerm;30489;48.982;8.394;2023-01-01T02:06:00;41.02;39.58;42.16;;
40465;Laerm;30489;48.982;8.394;2023-01-01T02:08:11;41.02;39.58;42.29;;
40465;Laerm;30489;48.982;8.394;2023-01-01T02:10:23;41.04;39.46;42.16;;
40465;Laerm;30489;48.982;8.394;2023-01-01T02:12:33;41.06;39.58;42.47;;
40465;Laerm;30489;48.982;8.394;2023-01-01T02:14:43;41.06;39.58;42.22;;
40465;Laerm;30489;48.982;8.394;2023-01-01T02:16:54;41.08;39.81;42.22;;
40465;Laerm;30489;48.982;8.394;2023-01-01T02:19:17;41.09;39.58;42.16;;
40465;Laerm;30489;48.982;8.394;2023-01-01T02:21:36;41.11;39.81;42.47;;
40465;Laerm;30489;48.982;8.394;2023-01-01T02:24:12;41.13;39.70;42.09;;
40465;Laerm;30489;48.982;8.394;2023-01-01T02:28:53;41.18;39.89;42.29;;
40465;Laerm;30489;48.982;8.394;2023-01-01T02:31:07;41.19;39.92;42.35;;
40465;Laerm;30489;48.982;8.394;2023-01-01T02:33:20;41.18;39.92;42.35;;
40465;Laerm;30489;48.982;8.394;2023-01-01T02:35:34;41.20;39.70;42.35;;
40465;Laerm;30489;48.982;8.394;2023-01-01T02:37:47;41.21;39.58;42.35;;
40465;Laerm;30489;48.982;8.394;2023-01-01T02:39:59;41.20;39.92;42.29;;
40465;Laerm;30489;48.982;8.394;2023-01-01T02:42:10;41.22;39.81;42.35;;
40465;Laerm;30489;48.982;8.394;2023-01-01T02:44:21;41.22;39.81;42.35;;
40465;Laerm;30489;48.982;8.394;2023-01-01T02:46:32;41.23;39.78;42.47;;
40465;Laerm;30489;48.982;8.394;2023-01-01T02:48:44;41.23;39.81;42.35;;
40465;Laerm;30489;48.982;8.394;2023-01-01T02:50:57;41.26;39.92;42.59;;
40465;Laerm;30489;48.982;8.394;2023-01-01T02:53:22;41.26;40.13;42.53;;
40465;Laerm;30489;48.982;8.394;2023-01-01T02:55:38;41.25;39.92;42.36;;
40465;Laerm;30489;48.982;8.394;2023-01-01T02:58:12;41.28;39.92;42.59;;
40465;Laerm;30489;48.982;8.394;2023-01-01T03:00:43;41.29;40.03;42.53;;
40465;Laerm;30489;48.982;8.394;2023-01-01T03:07:57;41.35;40.03;42.59;;
40465;Laerm;30489;48.982;8.394;2023-01-01T03:12:39;41.35;40.03;42.59;;
40465;Laerm;30489;48.982;8.394;2023-01-01T03:14:55;41.37;39.81;42.47;;
40465;Laerm;30489;48.982;8.394;2023-01-01T03:17:14;41.39;39.70;42.53;;
40465;Laerm;30489;48.982;8.394;2023-01-01T03:19:31;41.40;40.03;42.58;;
40465;Laerm;30489;48.982;8.394;2023-01-01T03:21:53;41.42;40.13;42.88;;
40465;Laerm;30489;48.982;8.394;2023-01-01T03:24:04;41.41;39.92;42.47;;
40465;Laerm;30489;48.982;8.394;2023-01-01T03:26:16;41.44;40.13;42.53;;
40465;Laerm;30489;48.982;8.394;2023-01-01T03:28:30;41.46;40.23;42.82;;
40465;Laerm;30489;48.982;8.394;2023-01-01T03:30:43;41.48;40.03;43.09;;
40465;Laerm;30489;48.982;8.394;2023-01-01T03:32:55;41.47;39.92;42.53;;
40465;Laerm;30489;48.982;8.394;2023-01-01T03:35:12;41.48;40.23;43.04;;
40465;Laerm;30489;48.982;8.394;2023-01-01T03:37:25;41.49;40.08;42.53;;
40465;Laerm;30489;48.982;8.394;2023-01-01T03:39:39;41.51;40.33;42.71;;
40465;Laerm;30489;48.982;8.394;2023-01-01T03:41:59;41.53;39.81;42.65;;
40465;Laerm;30489;48.982;8.394;2023-01-01T03:44:17;41.56;40.03;42.88;;
40465;Laerm;30489;48.982;8.394;2023-01-01T03:46:32;41.54;40.33;42.65;;
40465;Laerm;30489;48.982;8.394;2023-01-01T03:48:43;41.56;40.33;42.82;;
40465;Laerm;30489;48.982;8.394;2023-01-01T03:51:12;41.57;40.23;42.71;;
40465;Laerm;30489;48.982;8.394;2023-01-01T03:53:42;41.59;40.23;42.59;;
40465;Laerm;30489;48.982;8.394;2023-01-01T03:56:00;41.60;40.33;42.59;;
40465;Laerm;30489;48.982;8.394;2023-01-01T04:00:26;41.62;40.33;42.65;;
40465;Laerm;30489;48.982;8.394;2023-01-01T04:04:54;41.67;40.43;42.88;;
40465;Laerm;30489;48.982;8.394;2023-01-01T04:07:06;41.65;40.03;42.71;;
40465;Laerm;30489;48.982;8.394;2023-01-01T04:09:18;41.66;40.33;42.98;;
40465;Laerm;30489;48.982;8.394;2023-01-01T04:11:30;41.67;40.13;42.76;;
40465;Laerm;30489;48.982;8.394;2023-01-01T04:14:00;41.67;40.33;43.04;;
40465;Laerm;30489;48.982;8.394;2023-01-01T04:16:10;41.69;40.33;42.82;;
40465;Laerm;30489;48.982;8.394;2023-01-01T04:18:20;41.68;40.23;42.76;;
40465;Laerm;30489;48.982;8.394;2023-01-01T04:20:30;41.67;40.36;42.76;;
40465;Laerm;30489;48.982;8.394;2023-01-01T04:22:41;41.67;40.33;42.71;;
40465;Laerm;30489;48.982;8.394;2023-01-01T04:24:51;41.66;40.33;42.88;;
40465;Laerm;30489;48.982;8.394;2023-01-01T04:27:02;41.67;40.23;42.71;;
40465;Laerm;30489;48.982;8.394;2023-01-01T04:29:13;41.67;40.53;42.76;;
40465;Laerm;30489;48.982;8.394;2023-01-01T04:31:23;41.67;40.43;42.93;;
40465;Laerm;30489;48.982;8.394;2023-01-01T04:33:33;41.67;40.33;42.71;;
40465;Laerm;30489;48.982;8.394;2023-01-01T04:35:43;41.67;40.33;42.76;;
40465;Laerm;30489;48.982;8.394;2023-01-01T04:37:53;41.67;40.53;42.82;;
40465;Laerm;30489;48.982;8.394;2023-01-01T04:40:04;41.67;40.33;42.71;;
40465;Laerm;30489;48.982;8.394;2023-01-01T04:42:14;41.66;40.33;42.82;;
40465;Laerm;30489;48.982;8.394;2023-01-01T04:44:24;41.66;40.23;43.09;;
40465;Laerm;30489;48.982;8.394;2023-01-01T04:46:35;41.67;40.43;42.82;;
40465;Laerm;30489;48.982;8.394;2023-01-01T04:48:45;41.67;40.13;42.76;;
40465;Laerm;30489;48.982;8.394;2023-01-01T04:50:56;41.68;40.36;43.00;;
40465;Laerm;30489;48.982;8.394;2023-01-01T04:53:06;41.69;40.33;42.65;;
40465;Laerm;30489;48.982;8.394;2023-01-01T04:55:16;41.69;40.43;43.09;;
40465;Laerm;30489;48.982;8.394;2023-01-01T04:57:28;41.67;40.33;42.76;;
40465;Laerm;30489;48.982;8.394;2023-01-01T04:59:38;41.70;39.70;42.88;;
40465;Laerm;30489;48.982;8.394;2023-01-01T05:01:48;41.70;40.33;42.82;;
40465;Laerm;30489;48.982;8.394;2023-01-01T05:03:59;41.71;40.53;43.14;;
40465;Laerm;30489;48.982;8.394;2023-01-01T05:06:09;41.71;40.33;42.88;;
40465;Laerm;30489;48.982;8.394;2023-01-01T05:08:20;41.72;40.71;42.93;;
40465;Laerm;30489;48.982;8.394;2023-01-01T05:10:30;41.73;40.33;42.93;;
40465;Laerm;30489;48.982;8.394;2023-01-01T05:12:40;41.73;40.43;42.93;;
40465;Laerm;30489;48.982;8.394;2023-01-01T05:14:50;41.71;40.53;42.82;;
40465;Laerm;30489;48.982;8.394;2023-01-01T05:17:00;41.72;40.62;42.98;;
40465;Laerm;30489;48.982;8.394;2023-01-01T05:19:11;41.71;40.43;42.71;;
40465;Laerm;30489;48.982;8.394;2023-01-01T05:21:22;41.72;40.53;42.76;;
40465;Laerm;30489;48.982;8.394;2023-01-01T05:23:33;41.71;40.23;43.09;;
40465;Laerm;30489;48.982;8.394;2023-01-01T05:25:43;41.71;40.33;42.88;;
40465;Laerm;30489;48.982;8.394;2023-01-01T05:27:54;41.71;39.81;42.88;;
40465;Laerm;30489;48.982;8.394;2023-01-01T05:30:04;41.71;40.43;42.88;;
40465;Laerm;30489;48.982;8.394;2023-01-01T05:32:14;41.70;40.43;42.93;;
40465;Laerm;30489;48.982;8.394;2023-01-01T05:34:25;41.70;40.03;42.82;;
40465;Laerm;30489;48.982;8.394;2023-01-01T05:36:36;41.69;40.33;42.82;;
40465;Laerm;30489;48.982;8.394;2023-01-01T05:38:47;41.70;40.53;42.82;;
40465;Laerm;30489;48.982;8.394;2023-01-01T05:40:58;41.70;40.43;42.76;;
40465;Laerm;30489;48.982;8.394;2023-01-01T05:43:08;41.69;40.43;42.76;;
40465;Laerm;30489;48.982;8.394;2023-01-01T05:45:18;41.67;40.43;42.98;;
40465;Laerm;30489;48.982;8.394;2023-01-01T05:47:28;41.69;40.43;42.82;;
40465;Laerm;30489;48.982;8.394;2023-01-01T05:49:38;41.70;40.33;42.71;;
40465;Laerm;30489;48.982;8.394;2023-01-01T05:51:49;41.68;40.23;42.71;;
40465;Laerm;30489;48.982;8.394;2023-01-01T05:53:59;41.68;40.23;42.76;;
40465;Laerm;30489;48.982;8.394;2023-01-01T05:56:09;41.68;40.33;42.88;;
40465;Laerm;30489;48.982;8.394;2023-01-01T05:58:19;41.69;40.62;42.93;;
40465;Laerm;30489;48.982;8.394;2023-01-01T06:00:30;41.67;40.43;42.79;;
40465;Laerm;30489;48.982;8.394;2023-01-01T06:02:40;41.68;40.23;42.71;;
40465;Laerm;30489;48.982;8.394;2023-01-01T06:04:50;41.66;40.43;42.74;;
40465;Laerm;30489;48.982;8.394;2023-01-01T06:07:00;41.65;40.33;42.88;;
40465;Laerm;30489;48.982;8.394;2023-01-01T06:09:10;41.66;40.23;42.82;;
40465;Laerm;30489;48.982;8.394;2023-01-01T06:11:21;41.65;40.33;42.82;;
40465;Laerm;30489;48.982;8.394;2023-01-01T06:13:31;41.65;40.43;42.88;;
40465;Laerm;30489;48.982;8.394;2023-01-01T06:15:42;41.66;40.33;42.71;;
40465;Laerm;30489;48.982;8.394;2023-01-01T06:17:52;41.65;40.23;42.88;;
40465;Laerm;30489;48.982;8.394;2023-01-01T06:20:02;41.66;40.43;42.65;;
40465;Laerm;30489;48.982;8.394;2023-01-01T06:22:13;41.64;40.33;42.93;;
40465;Laerm;30489;48.982;8.394;2023-01-01T06:24:23;41.64;40.23;42.71;;
40465;Laerm;30489;48.982;8.394;2023-01-01T06:26:33;41.64;40.33;42.59;;
40465;Laerm;30489;48.982;8.394;2023-01-01T06:28:43;41.64;40.23;42.71;;
40465;Laerm;30489;48.982;8.394;2023-01-01T06:30:54;41.63;40.13;42.65;;
40465;Laerm;30489;48.982;8.394;2023-01-01T06:33:07;41.64;40.43;42.76;;
40465;Laerm;30489;48.982;8.394;2023-01-01T06:35:18;41.63;40.53;42.71;;
40465;Laerm;30489;48.982;8.394;2023-01-01T06:37:28;41.63;40.23;42.82;;
40465;Laerm;30489;48.982;8.394;2023-01-01T06:39:38;41.62;40.33;42.71;;
40465;Laerm;30489;48.982;8.394;2023-01-01T06:41:48;41.62;40.43;42.69;;
40465;Laerm;30489;48.982;8.394;2023-01-01T06:43:58;41.62;40.43;42.71;;
40465;Laerm;30489;48.982;8.394;2023-01-01T06:48:23;41.63;40.33;42.76;;
40465;Laerm;30489;48.982;8.394;2023-01-01T06:50:34;41.63;40.23;42.65;;
40465;Laerm;30489;48.982;8.394;2023-01-01T06:52:45;41.64;40.23;43.04;;
40465;Laerm;30489;48.982;8.394;2023-01-01T06:54:55;41.64;40.33;42.76;;
40465;Laerm;30489;48.982;8.394;2023-01-01T06:57:06;41.63;40.33;42.88;;
40465;Laerm;30489;48.982;8.394;2023-01-01T06:59:16;41.64;40.23;42.76;;
40465;Laerm;30489;48.982;8.394;2023-01-01T07:01:27;41.65;40.33;42.69;;
40465;Laerm;30489;48.982;8.394;2023-01-01T07:03:38;41.65;40.33;42.76;;
40465;Laerm;30489;48.982;8.394;2023-01-01T07:05:48;41.63;40.43;42.71;;
40465;Laerm;30489;48.982;8.394;2023-01-01T07:07:59;41.64;40.23;42.65;;
40465;Laerm;30489;48.982;8.394;2023-01-01T07:10:09;41.64;40.33;42.88;;
40465;Laerm;30489;48.982;8.394;2023-01-01T07:12:19;41.63;40.33;42.82;;
40465;Laerm;30489;48.982;8.394;2023-01-01T07:14:29;41.61;40.23;42.76;;
40465;Laerm;30489;48.982;8.394;2023-01-01T07:16:39;41.61;40.33;42.59;;
40465;Laerm;30489;48.982;8.394;2023-01-01T07:18:50;41.59;40.33;42.93;;
40465;Laerm;30489;48.982;8.394;2023-01-01T07:21:01;41.57;40.23;42.71;;
40465;Laerm;30489;48.982;8.394;2023-01-01T07:23:12;41.54;40.03;42.58;;
40465;Laerm;30489;48.982;8.394;2023-01-01T07:25:22;41.52;40.33;42.53;;
40465;Laerm;30489;48.982;8.394;2023-01-01T07:27:32;41.49;40.13;42.71;;
40465;Laerm;30489;48.982;8.394;2023-01-01T07:29:42;41.48;40.13;42.65;;
40465;Laerm;30489;48.982;8.394;2023-01-01T07:31:52;41.45;40.13;42.53;;
40465;Laerm;30489;48.982;8.394;2023-01-01T07:34:03;41.42;40.13;42.53;;
40465;Laerm;30489;48.982;8.394;2023-01-01T07:36:14;41.38;40.03;42.41;;
40465;Laerm;30489;48.982;8.394;2023-01-01T07:38:24;41.37;39.92;42.53;;
40465;Laerm;30489;48.982;8.394;2023-01-01T07:40:34;41.35;40.03;42.47;;
40465;Laerm;30489;48.982;8.394;2023-01-01T07:42:44;41.34;39.92;42.53;;
40465;Laerm;30489;48.982;8.394;2023-01-01T07:44:54;41.32;39.92;42.47;;
40465;Laerm;30489;48.982;8.394;2023-01-01T07:47:19;41.31;39.70;42.65;;
40465;Laerm;30489;48.982;8.394;2023-01-01T07:49:30;41.30;39.92;42.35;;
40465;Laerm;30489;48.982;8.394;2023-01-01T07:51:40;41.28;39.46;42.53;;
40465;Laerm;30489;48.982;8.394;2023-01-01T07:53:50;41.28;40.13;42.47;;
40465;Laerm;30489;48.982;8.394;2023-01-01T07:56:01;41.28;39.92;42.53;;
40465;Laerm;30489;48.982;8.394;2023-01-01T07:58:11;41.28;40.03;42.41;;
40465;Laerm;30489;48.982;8.394;2023-01-01T08:00:21;41.26;39.70;42.41;;
40465;Laerm;30489;48.982;8.394;2023-01-01T08:02:32;41.25;39.81;42.53;;
40465;Laerm;30489;48.982;8.394;2023-01-01T08:04:42;41.25;39.92;42.35;;
40465;Laerm;30489;48.982;8.394;2023-01-01T08:06:52;41.21;39.81;42.24;;
40465;Laerm;30489;48.982;8.394;2023-01-01T08:09:03;41.18;39.70;42.53;;
40465;Laerm;30489;48.982;8.394;2023-01-01T08:11:13;41.15;39.58;42.76;;
40465;Laerm;30489;48.982;8.394;2023-01-01T08:13:23;41.15;39.70;42.35;;
40465;Laerm;30489;48.982;8.394;2023-01-01T08:15:33;41.14;39.78;42.22;;
40465;Laerm;30489;48.982;8.394;2023-01-01T08:17:44;41.10;39.81;42.16;;
40465;Laerm;30489;48.982;8.394;2023-01-01T08:19:54;41.07;39.70;42.22;;
40465;Laerm;30489;48.982;8.394;2023-01-01T08:22:04;41.06;39.70;42.35;;
40465;Laerm;30489;48.982;8.394;2023-01-01T08:24:14;41.05;39.70;42.29;;
40465;Laerm;30489;48.982;8.394;2023-01-01T08:26:28;41.02;39.70;42.22;;
40465;Laerm;30489;48.982;8.394;2023-01-01T08:28:39;41.00;39.46;42.29;;
40465;Laerm;30489;48.982;8.394;2023-01-01T08:30:49;40.99;39.21;42.16;;
40465;Laerm;30489;48.982;8.394;2023-01-01T08:33:00;40.99;39.46;42.03;;
40465;Laerm;30489;48.982;8.394;2023-01-01T08:35:10;40.96;39.70;42.09;;
40465;Laerm;30489;48.982;8.394;2023-01-01T08:37:20;40.95;39.46;42.16;;
40465;Laerm;30489;48.982;8.394;2023-01-01T08:39:31;40.94;39.46;42.09;;
40465;Laerm;30489;48.982;8.394;2023-01-01T08:41:41;40.94;39.58;42.22;;
40465;Laerm;30489;48.982;8.394;2023-01-01T08:43:51;40.92;39.58;42.22;;
40465;Laerm;30489;48.982;8.394;2023-01-01T08:46:02;40.93;39.21;42.41;;
40465;Laerm;30489;48.982;8.394;2023-01-01T08:48:12;40.92;39.34;42.03;;
40465;Laerm;30489;48.982;8.394;2023-01-01T08:50:22;40.90;39.46;42.22;;
40465;Laerm;30489;48.982;8.394;2023-01-01T08:52:32;40.91;39.34;42.09;;
40465;Laerm;30489;48.982;8.394;2023-01-01T08:54:43;40.92;39.34;42.03;;
40465;Laerm;30489;48.982;8.394;2023-01-01T08:56:53;40.89;39.57;42.03;;
40465;Laerm;30489;48.982;8.394;2023-01-01T08:59:03;40.89;39.21;42.22;;
40465;Laerm;30489;48.982;8.394;2023-01-01T09:01:14;40.88;39.34;42.03;;
40465;Laerm;30489;48.982;8.394;2023-01-01T09:03:24;40.88;39.58;42.09;;
40465;Laerm;30489;48.982;8.394;2023-01-01T09:05:35;40.91;39.34;42.16;;
40465;Laerm;30489;48.982;8.394;2023-01-01T09:07:45;40.90;39.34;42.09;;
40465;Laerm;30489;48.982;8.394;2023-01-01T09:09:55;40.90;39.58;42.03;;
40465;Laerm;30489;48.982;8.394;2023-01-01T09:12:05;40.91;39.23;42.16;;
40465;Laerm;30489;48.982;8.394;2023-01-01T09:14:18;40.91;39.46;42.09;;
40465;Laerm;30489;48.982;8.394;2023-01-01T09:16:29;40.89;39.58;42.03;;
40465;Laerm;30489;48.982;8.394;2023-01-01T09:18:39;40.92;39.46;42.29;;
40465;Laerm;30489;48.982;8.394;2023-01-01T09:20:49;40.91;39.34;42.03;;
40465;Laerm;30489;48.982;8.394;2023-01-01T09:22:59;40.91;39.46;42.09;;
40465;Laerm;30489;48.982;8.394;2023-01-01T09:25:09;40.96;39.46;42.03;;
40465;Laerm;30489;48.982;8.394;2023-01-01T09:27:20;40.97;39.46;42.29;;
40465;Laerm;30489;48.982;8.394;2023-01-01T09:29:30;40.98;39.46;42.29;;
40465;Laerm;30489;48.982;8.394;2023-01-01T09:31:40;40.98;39.58;42.09;;
40465;Laerm;30489;48.982;8.394;2023-01-01T09:33:50;41.01;39.70;42.22;;
40465;Laerm;30489;48.982;8.394;2023-01-01T09:36:14;41.02;39.46;42.16;;
40465;Laerm;30489;48.982;8.394;2023-01-01T09:38:24;41.04;39.58;42.16;;
40465;Laerm;30489;48.982;8.394;2023-01-01T09:45:20;41.15;39.81;42.22;;
40465;Laerm;30489;48.982;8.394;2023-01-01T09:47:39;41.23;39.81;42.29;;
40465;Laerm;30489;48.982;8.394;2023-01-01T09:49:51;41.27;39.92;42.35;;
40465;Laerm;30489;48.982;8.394;2023-01-01T09:52:03;41.31;40.03;42.41;;
40465;Laerm;30489;48.982;8.394;2023-01-01T09:56:30;41.40;39.81;42.47;;
40465;Laerm;30489;48.982;8.394;2023-01-01T09:58:43;41.44;39.92;42.47;;
40465;Laerm;30489;48.982;8.394;2023-01-01T10:00:55;41.46;39.92;42.71;;
40465;Laerm;30489;48.982;8.394;2023-01-01T10:03:24;41.48;40.23;42.71;;
40465;Laerm;30489;48.982;8.394;2023-01-01T10:08:03;41.52;40.13;42.59;;
40465;Laerm;30489;48.982;8.394;2023-01-01T10:10:21;41.54;40.13;42.76;;
40465;Laerm;30489;48.982;8.394;2023-01-01T10:14:52;41.54;40.33;42.76;;
40465;Laerm;30489;48.982;8.394;2023-01-01T10:17:19;41.55;40.23;42.59;;
40465;Laerm;30489;48.982;8.394;2023-01-01T10:19:44;41.54;40.13;42.76;;
40465;Laerm;30489;48.982;8.394;2023-01-01T10:21:55;41.53;40.03;42.76;;
40465;Laerm;30489;48.982;8.394;2023-01-01T10:24:23;41.52;40.23;42.65;;
40465;Laerm;30489;48.982;8.394;2023-01-01T10:26:36;41.54;40.13;42.76;;
40465;Laerm;30489;48.982;8.394;2023-01-01T10:28:58;41.55;40.13;42.65;;
40465;Laerm;30489;48.982;8.394;2023-01-01T10:31:14;41.53;40.23;42.71;;
40465;Laerm;30489;48.982;8.394;2023-01-01T10:33:25;41.59;40.33;42.65;;
40465;Laerm;30489;48.982;8.394;2023-01-01T10:35:38;41.63;40.33;42.82;;
40465;Laerm;30489;48.982;8.394;2023-01-01T10:37:49;41.65;40.23;42.93;;
40465;Laerm;30489;48.982;8.394;2023-01-01T10:40:02;41.64;40.33;42.82;;
40465;Laerm;30489;48.982;8.394;2023-01-01T10:42:14;41.66;40.53;42.82;;
40465;Laerm;30489;48.982;8.394;2023-01-01T10:44:26;41.73;40.43;42.93;;
40465;Laerm;30489;48.982;8.394;2023-01-01T10:46:39;41.73;40.43;42.82;;
40465;Laerm;30489;48.982;8.394;2023-01-01T10:49:04;41.73;40.62;42.82;;
40465;Laerm;30489;48.982;8.394;2023-01-01T10:51:15;41.82;40.62;42.82;;
40465;Laerm;30489;48.982;8.394;2023-01-01T10:53:36;41.83;40.62;42.93;;
40465;Laerm;30489;48.982;8.394;2023-01-01T10:55:48;41.84;40.53;42.93;;
40465;Laerm;30489;48.982;8.394;2023-01-01T10:57:58;41.87;40.53;42.93;;
40465;Laerm;30489;48.982;8.394;2023-01-01T11:02:26;41.91;40.63;42.93;;
40465;Laerm;30489;48.982;8.394;2023-01-01T11:04:37;41.93;40.62;42.98;;
40465;Laerm;30489;48.982;8.394;2023-01-01T11:06:47;41.95;40.23;43.04;;
40465;Laerm;30489;48.982;8.394;2023-01-01T11:08:58;41.95;40.53;42.98;;
40465;Laerm;30489;48.982;8.394;2023-01-01T11:11:16;41.96;40.71;43.00;;
40465;Laerm;30489;48.982;8.394;2023-01-01T11:13:28;41.98;40.43;43.09;;
40465;Laerm;30489;48.982;8.394;2023-01-01T11:15:40;41.99;40.62;43.04;;
40465;Laerm;30489;48.982;8.394;2023-01-01T11:17:51;41.99;40.62;43.04;;
40465;Laerm;30489;48.982;8.394;2023-01-01T11:20:03;41.99;40.80;42.93;;
40465;Laerm;30489;48.982;8.394;2023-01-01T11:24:44;42.02;40.71;43.09;;
40465;Laerm;30489;48.982;8.394;2023-01-01T11:29:25;42.02;40.43;43.09;;
40465;Laerm;30489;48.982;8.394;2023-01-01T11:31:36;42.01;40.62;43.04;;
40465;Laerm;30489;48.982;8.394;2023-01-01T11:33:48;42.03;40.88;43.14;;
40465;Laerm;30489;48.982;8.394;2023-01-01T11:35:59;42.05;40.89;43.14;;
40465;Laerm;30489;48.982;8.394;2023-01-01T11:38:14;42.06;40.80;43.19;;
40465;Laerm;30489;48.982;8.394;2023-01-01T11:40:35;42.06;40.62;43.04;;
40465;Laerm;30489;48.982;8.394;2023-01-01T11:42:47;42.07;40.62;43.09;;
40465;Laerm;30489;48.982;8.394;2023-01-01T11:45:05;42.09;40.80;43.29;;
40465;Laerm;30489;48.982;8.394;2023-01-01T11:47:23;42.10;40.89;43.29;;
40465;Laerm;30489;48.982;8.394;2023-01-01T11:49:34;42.13;40.98;43.19;;
40465;Laerm;30489;48.982;8.394;2023-01-01T11:51:44;42.11;40.80;43.24;;
40465;Laerm;30489;48.982;8.394;2023-01-01T11:54:18;42.14;40.62;43.24;;
40465;Laerm;30489;48.982;8.394;2023-01-01T11:56:30;42.13;40.89;43.24;;
40465;Laerm;30489;48.982;8.394;2023-01-01T12:00:58;42.14;40.89;43.19;;
40465;Laerm;30489;48.982;8.394;2023-01-01T12:03:11;42.16;40.71;43.14;;
40465;Laerm;30489;48.982;8.394;2023-01-01T12:05:25;42.16;40.89;43.24;;
40465;Laerm;30489;48.982;8.394;2023-01-01T12:07:39;42.15;40.89;43.14;;
40465;Laerm;30489;48.982;8.394;2023-01-01T12:09:53;42.15;40.71;43.19;;
40465;Laerm;30489;48.982;8.394;2023-01-01T12:12:14;42.16;40.80;43.44;;
40465;Laerm;30489;48.982;8.394;2023-01-01T12:14:29;42.15;40.89;43.34;;
40465;Laerm;30489;48.982;8.394;2023-01-01T12:16:46;42.15;40.79;43.19;;
40465;Laerm;30489;48.982;8.394;2023-01-01T12:19:00;42.16;40.53;43.34;;
40465;Laerm;30489;48.982;8.394;2023-01-01T12:23:25;42.15;40.71;43.34;;
40465;Laerm;30489;48.982;8.394;2023-01-01T12:25:37;42.15;40.80;43.19;;
40465;Laerm;30489;48.982;8.394;2023-01-01T12:31:00;42.15;40.80;43.29;;
40465;Laerm;30489;48.982;8.394;2023-01-01T12:33:03;42.15;40.71;43.24;;
40465;Laerm;30489;48.982;8.394;2023-01-01T12:42:16;42.14;40.62;43.24;;
40465;Laerm;30489;48.982;8.394;2023-01-01T12:44:39;42.14;40.71;43.19;;
40465;Laerm;30489;48.982;8.394;2023-01-01T12:46:57;42.13;40.89;43.34;;
40465;Laerm;30489;48.982;8.394;2023-01-01T12:51:43;42.14;40.89;43.29;;
40465;Laerm;30489;48.982;8.394;2023-01-01T12:58:31;42.14;40.89;43.24;;
40465;Laerm;30489;48.982;8.394;2023-01-01T13:00:46;42.14;40.62;43.19;;
40465;Laerm;30489;48.982;8.394;2023-01-01T13:03:14;42.08;40.53;43.09;;
40465;Laerm;30489;48.982;8.394;2023-01-01T13:05:47;42.07;40.62;43.19;;
40465;Laerm;30489;48.982;8.394;2023-01-01T13:07:59;41.94;40.53;43.09;;
40465;Laerm;30489;48.982;8.394;2023-01-01T13:12:33;41.94;40.53;43.09;;
40465;Laerm;30489;48.982;8.394;2023-01-01T13:14:44;41.66;40.33;42.88;;
40465;Laerm;30489;48.982;8.394;2023-01-01T13:16:55;41.99;40.53;43.14;;
40465;Laerm;30489;48.982;8.394;2023-01-01T13:19:10;41.89;40.71;43.24;;
40465;Laerm;30489;48.982;8.394;2023-01-01T13:21:32;41.74;40.03;42.93;;